sensor_id;sensor_type;location;lat;lon;timestamp;pressure;altitude;pressure_sealevel;temperature;humidity
70304;BME280;57712;48.752;11.348;2024-03-06T00:01:19;97455.16;;;8.19;100.00
70304;BME280;57712;48.752;11.348;2024-03-06T00:03:46;97462.47;;;8.29;100.00
70304;BME280;57712;48.752;11.348;2024-03-06T00:06:13;97462.44;;;8.33;100.00
70304;BME280;57712;48.752;11.348;2024-03-06T00:08:40;97457.84;;;8.23;100.00
70304;BME280;57712;48.752;11.348;2024-03-06T00:11:06;97456.25;;;8.29;100.00
70304;BME280;57712;48.752;11.348;2024-03-06T00:13:34;97458.13;;;8.39;100.00
70304;BME280;57712;48.752;11.348;2024-03-06T00:16:01;97462.84;;;8.35;100.00
70304;BME280;57712;48.752;11.348;2024-03-06T00:18:27;97462.03;;;8.38;100.00
70304;BME280;57712;48.752;11.348;2024-03-06T00:20:54;97461.69;;;8.29;100.00
70304;BME280;57712;48.752;11.348;2024-03-06T00:23:21;97462.44;;;8.33;100.00
70304;BME280;57712;48.752;11.348;2024-03-06T00:25:48;97458.16;;;8.35;100.00
70304;BME280;57712;48.752;11.348;2024-03-06T00:28:15;97462.06;;;8.31;100.00
70304;BME280;57712;48.752;11.348;2024-03-06T00:30:41;97469.88;;;8.29;100.00
70304;BME280;57712;48.752;11.348;2024-03-06T00:33:08;97465.59;;;8.35;100.00
70304;BME280;57712;48.752;11.348;2024-03-06T00:35:35;97464.06;;;8.27;100.00
70304;BME280;57712;48.752;11.348;2024-03-06T00:38:02;97466.75;;;8.30;100.00
70304;BME280;57712;48.752;11.348;2024-03-06T00:40:29;97469.16;;;8.25;100.00
70304;BME280;57712;48.752;11.348;2024-03-06T00:42:57;97474.53;;;8.32;100.00
70304;BME280;57712;48.752;11.348;2024-03-06T00:45:24;97476.50;;;8.35;100.00
70304;BME280;57712;48.752;11.348;2024-03-06T00:47:51;97472.97;;;8.31;100.00
70304;BME280;57712;48.752;11.348;2024-03-06T00:50:18;97476.16;;;8.26;100.00
70304;BME280;57712;48.752;11.348;2024-03-06T00:52:47;97478.47;;;8.34;100.00
70304;BME280;57712;48.752;11.348;2024-03-06T00:55:15;97469.47;;;8.34;100.00
70304;BME280;57712;48.752;11.348;2024-03-06T00:57:42;97473.81;;;8.28;100.00
70304;BME280;57712;48.752;11.348;2024-03-06T01:00:09;97470.63;;;8.33;100.00
70304;BME280;57712;48.752;11.348;2024-03-06T01:02:39;97471.81;;;8.32;100.00
70304;BME280;57712;48.752;11.348;2024-03-06T01:05:06;97463.66;;;8.28;100.00
70304;BME280;57712;48.752;11.348;2024-03-06T01:07:33;97465.31;;;8.19;100.00
70304;BME280;57712;48.752;11.348;2024-03-06T01:10:01;97468.34;;;8.28;100.00
70304;BME280;57712;48.752;11.348;2024-03-06T01:12:28;97470.25;;;8.31;100.00
70304;BME280;57712;48.752;11.348;2024-03-06T01:14:56;97465.34;;;8.15;100.00
70304;BME280;57712;48.752;11.348;2024-03-06T01:17:23;97464.97;;;8.13;100.00
70304;BME280;57712;48.752;11.348;2024-03-06T01:19:50;97469.16;;;8.21;100.00
70304;BME280;57712;48.752;11.348;2024-03-06T01:22:18;97470.75;;;8.19;100.00
70304;BME280;57712;48.752;11.348;2024-03-06T01:24:45;97471.53;;;8.19;100.00
70304;BME280;57712;48.752;11.348;2024-03-06T01:27:12;97467.72;;;8.09;100.00
70304;BME280;57712;48.752;11.348;2024-03-06T01:29:38;97463.03;;;8.14;100.00
70304;BME280;57712;48.752;11.348;2024-03-06T01:32:05;97463.03;;;8.14;100.00
70304;BME280;57712;48.752;11.348;2024-03-06T01:34:32;97461.53;;;8.05;100.00
70304;BME280;57712;48.752;11.348;2024-03-06T01:36:59;97455.66;;;8.07;100.00
70304;BME280;57712;48.752;11.348;2024-03-06T01:39:26;97452.97;;;8.03;100.00
70304;BME280;57712;48.752;11.348;2024-03-06T01:41:53;97461.84;;;8.11;100.00
70304;BME280;57712;48.752;11.348;2024-03-06T01:44:21;97459.53;;;8.09;100.00
70304;BME280;57712;48.752;11.348;2024-03-06T01:46:47;97459.53;;;8.09;100.00
70304;BME280;57712;48.752;11.348;2024-03-06T01:49:15;97459.13;;;8.11;100.00
70304;BME280;57712;48.752;11.348;2024-03-06T01:51:58;97455.66;;;8.07;100.00
70304;BME280;57712;48.752;11.348;2024-03-06T01:54:26;97456.88;;;8.02;100.00
70304;BME280;57712;48.752;11.348;2024-03-06T01:56:54;97455.03;;;7.92;100.00
70304;BME280;57712;48.752;11.348;2024-03-06T01:59:23;97455.31;;;8.05;100.00
70304;BME280;57712;48.752;11.348;2024-03-06T02:02:02;97459.97;;;8.04;100.00
70304;BME280;57712;48.752;11.348;2024-03-06T02:04:29;97456.84;;;8.06;100.00
70304;BME280;57712;48.752;11.348;2024-03-06T02:06:57;97454.44;;;8.11;100.00
70304;BME280;57712;48.752;11.348;2024-03-06T02:09:24;97458.44;;;8.00;100.00
70304;BME280;57712;48.752;11.348;2024-03-06T02:11:50;97444.41;;;8.01;100.00
70304;BME280;57712;48.752;11.348;2024-03-06T02:14:17;97447.13;;;8.01;100.00
70304;BME280;57712;48.752;11.348;2024-03-06T02:16:44;97450.63;;;8.02;100.00
70304;BME280;57712;48.752;11.348;2024-03-06T02:19:11;97452.16;;;8.06;100.00
70304;BME280;57712;48.752;11.348;2024-03-06T02:21:37;97450.16;;;8.10;100.00
70304;BME280;57712;48.752;11.348;2024-03-06T02:24:04;97451.44;;;8.02;100.00
70304;BME280;57712;48.752;11.348;2024-03-06T02:26:31;97447.53;;;8.03;100.00
70304;BME280;57712;48.752;11.348;2024-03-06T02:28:58;97446.41;;;7.97;100.00
70304;BME280;57712;48.752;11.348;2024-03-06T02:31:24;97435.84;;;7.99;100.00
70304;BME280;57712;48.752;11.348;2024-03-06T02:33:51;97440.13;;;8.04;100.00
70304;BME280;57712;48.752;11.348;2024-03-06T02:36:18;97435.06;;;7.99;100.00
70304;BME280;57712;48.752;11.348;2024-03-06T02:38:45;97440.53;;;7.99;100.00
70304;BME280;57712;48.752;11.348;2024-03-06T02:41:12;97437.41;;;8.00;100.00
70304;BME280;57712;48.752;11.348;2024-03-06T02:43:42;97442.84;;;8.00;100.00
70304;BME280;57712;48.752;11.348;2024-03-06T02:46:09;97436.22;;;8.01;100.00
70304;BME280;57712;48.752;11.348;2024-03-06T02:48:36;97440.88;;;8.04;100.00
70304;BME280;57712;48.752;11.348;2024-03-06T02:51:03;97444.41;;;8.01;100.00
70304;BME280;57712;48.752;11.348;2024-03-06T02:53:30;97438.66;;;7.89;100.00
70304;BME280;57712;48.752;11.348;2024-03-06T02:55:56;97435.53;;;7.90;100.00
70304;BME280;57712;48.752;11.348;2024-03-06T02:58:23;97436.63;;;8.03;100.00
70304;BME280;57712;48.752;11.348;2024-03-06T03:00:50;97438.56;;;8.03;100.00
70304;BME280;57712;48.752;11.348;2024-03-06T03:03:16;97439.75;;;7.98;100.00
70304;BME280;57712;48.752;11.348;2024-03-06T03:05:43;97438.22;;;7.97;100.00
70304;BME280;57712;48.752;11.348;2024-03-06T03:08:10;97431.16;;;8.00;100.00
70304;BME280;57712;48.752;11.348;2024-03-06T03:10:37;97432.34;;;7.99;100.00
70304;BME280;57712;48.752;11.348;2024-03-06T03:13:04;97427.31;;;7.97;100.00
70304;BME280;57712;48.752;11.348;2024-03-06T03:15:31;97431.22;;;7.96;100.00
70304;BME280;57712;48.752;11.348;2024-03-06T03:17:59;97427.34;;;7.94;100.00
70304;BME280;57712;48.752;11.348;2024-03-06T03:20:26;97431.63;;;7.95;100.00
70304;BME280;57712;48.752;11.348;2024-03-06T03:22:52;97425.03;;;7.89;100.00
70304;BME280;57712;48.752;11.348;2024-03-06T03:25:19;97434.44;;;7.80;100.00
70304;BME280;57712;48.752;11.348;2024-03-06T03:27:48;97425.81;;;7.89;100.00
70304;BME280;57712;48.752;11.348;2024-03-06T03:30:15;97423.53;;;7.84;100.00
70304;BME280;57712;48.752;11.348;2024-03-06T03:32:42;97424.25;;;7.88;100.00
70304;BME280;57712;48.752;11.348;2024-03-06T03:35:09;97430.06;;;7.90;100.00
70304;BME280;57712;48.752;11.348;2024-03-06T03:37:36;97431.25;;;7.89;100.00
70304;BME280;57712;48.752;11.348;2024-03-06T03:40:03;97428.97;;;7.84;100.00
70304;BME280;57712;48.752;11.348;2024-03-06T03:42:30;97433.59;;;7.91;100.00
70304;BME280;57712;48.752;11.348;2024-03-06T03:44:57;97442.97;;;7.86;100.00
70304;BME280;57712;48.752;11.348;2024-03-06T03:47:24;97435.22;;;7.85;100.00
70304;BME280;57712;48.752;11.348;2024-03-06T03:49:50;97443.72;;;7.90;100.00
70304;BME280;57712;48.752;11.348;2024-03-06T03:52:35;97447.69;;;7.82;100.00
70304;BME280;57712;48.752;11.348;2024-03-06T03:55:02;97452.38;;;7.81;100.00
70304;BME280;57712;48.752;11.348;2024-03-06T03:57:30;97451.94;;;7.87;100.00
70304;BME280;57712;48.752;11.348;2024-03-06T03:59:57;97453.94;;;7.82;100.00
70304;BME280;57712;48.752;11.348;2024-03-06T04:02:24;97456.63;;;7.86;100.00
70304;BME280;57712;48.752;11.348;2024-03-06T04:04:50;97453.16;;;7.82;100.00
70304;BME280;57712;48.752;11.348;2024-03-06T04:07:17;97451.53;;;7.88;100.00
70304;BME280;57712;48.752;11.348;2024-03-06T04:09:45;97450.78;;;7.84;100.00
70304;BME280;57712;48.752;11.348;2024-03-06T04:12:14;97453.16;;;7.82;100.00
70304;BME280;57712;48.752;11.348;2024-03-06T04:14:41;97459.34;;;7.86;100.00
70304;BME280;57712;48.752;11.348;2024-03-06T04:17:08;97462.06;;;7.86;100.00
70304;BME280;57712;48.752;11.348;2024-03-06T04:19:35;97449.28;;;7.76;100.00
70304;BME280;57712;48.752;11.348;2024-03-06T04:22:02;97460.56;;;7.78;100.00
70304;BME280;57712;48.752;11.348;2024-03-06T04:24:29;97463.34;;;7.74;100.00
70304;BME280;57712;48.752;11.348;2024-03-06T04:26:55;97467.19;;;7.77;100.00
70304;BME280;57712;48.752;11.348;2024-03-06T04:29:22;97464.09;;;7.75;100.00
70304;BME280;57712;48.752;11.348;2024-03-06T04:31:49;97478.06;;;7.84;100.00
70304;BME280;57712;48.752;11.348;2024-03-06T04:34:15;97474.19;;;7.81;100.00
70304;BME280;57712;48.752;11.348;2024-03-06T04:36:42;97478.84;;;7.81;100.00
70304;BME280;57712;48.752;11.348;2024-03-06T04:39:09;97471.06;;;7.79;100.00
70304;BME280;57712;48.752;11.348;2024-03-06T04:41:36;97485.09;;;7.81;100.00
70304;BME280;57712;48.752;11.348;2024-03-06T04:44:03;97485.81;;;7.89;100.00
70304;BME280;57712;48.752;11.348;2024-03-06T04:46:30;97488.97;;;7.84;100.00
70304;BME280;57712;48.752;11.348;2024-03-06T04:48:56;97483.88;;;7.86;100.00
70304;BME280;57712;48.752;11.348;2024-03-06T04:51:23;97488.13;;;7.91;100.00
70304;BME280;57712;48.752;11.348;2024-03-06T04:53:50;97489.31;;;7.93;100.00
70304;BME280;57712;48.752;11.348;2024-03-06T04:56:17;97497.44;;;7.97;100.00
70304;BME280;57712;48.752;11.348;2024-03-06T04:58:45;97498.19;;;8.01;100.00
70304;BME280;57712;48.752;11.348;2024-03-06T05:01:12;97508.72;;;8.02;100.00
70304;BME280;57712;48.752;11.348;2024-03-06T05:03:39;97498.94;;;8.05;100.00
70304;BME280;57712;48.752;11.348;2024-03-06T05:06:22;97502.09;;;8.03;100.00
70304;BME280;57712;48.752;11.348;2024-03-06T05:09:04;97507.91;;;8.02;100.00
70304;BME280;57712;48.752;11.348;2024-03-06T05:11:45;97504.03;;;8.03;100.00
70304;BME280;57712;48.752;11.348;2024-03-06T05:14:26;97500.56;;;7.95;100.00
70304;BME280;57712;48.752;11.348;2024-03-06T05:17:07;97501.31;;;7.99;100.00
70304;BME280;57712;48.752;11.348;2024-03-06T05:19:49;97504.44;;;7.98;100.00
70304;BME280;57712;48.752;11.348;2024-03-06T05:22:30;97504.50;;;7.91;100.00
70304;BME280;57712;48.752;11.348;2024-03-06T05:25:11;97506.06;;;7.88;100.00
70304;BME280;57712;48.752;11.348;2024-03-06T05:27:52;97509.97;;;7.87;100.00
70304;BME280;57712;48.752;11.348;2024-03-06T05:30:32;97506.84;;;7.89;100.00
70304;BME280;57712;48.752;11.348;2024-03-06T05:33:14;97506.84;;;7.89;100.00
70304;BME280;57712;48.752;11.348;2024-03-06T05:35:55;97519.31;;;7.93;100.00
70304;BME280;57712;48.752;11.348;2024-03-06T05:38:36;97510.69;;;7.98;100.00
70304;BME280;57712;48.752;11.348;2024-03-06T05:41:17;97517.75;;;7.89;100.00
70304;BME280;57712;48.752;11.348;2024-03-06T05:43:59;97521.69;;;7.84;100.00
70304;BME280;57712;48.752;11.348;2024-03-06T05:46:40;97527.84;;;7.95;100.00
70304;BME280;57712;48.752;11.348;2024-03-06T05:49:20;97525.47;;;8.01;100.00
70304;BME280;57712;48.752;11.348;2024-03-06T05:52:01;97527.00;;;8.05;100.00
70304;BME280;57712;48.752;11.348;2024-03-06T05:54:41;97534.00;;;8.06;100.00
70304;BME280;57712;48.752;11.348;2024-03-06T05:57:22;97532.38;;;8.13;100.00
70304;BME280;57712;48.752;11.348;2024-03-06T06:00:03;97534.69;;;8.18;100.00
70304;BME280;57712;48.752;11.348;2024-03-06T06:02:31;97536.25;;;8.19;100.00
70304;BME280;57712;48.752;11.348;2024-03-06T06:04:57;97541.28;;;8.24;100.00
70304;BME280;57712;48.752;11.348;2024-03-06T06:07:45;97537.78;;;8.20;100.00
70304;BME280;57712;48.752;11.348;2024-03-06T06:10:12;97538.94;;;8.26;100.00
70304;BME280;57712;48.752;11.348;2024-03-06T06:12:42;97545.94;;;8.27;100.00
70304;BME280;57712;48.752;11.348;2024-03-06T06:15:09;97540.13;;;8.21;100.00
70304;BME280;57712;48.752;11.348;2024-03-06T06:17:36;97551.03;;;8.25;100.00
70304;BME280;57712;48.752;11.348;2024-03-06T06:20:07;97551.34;;;8.30;100.00
70304;BME280;57712;48.752;11.348;2024-03-06T06:22:36;97547.84;;;8.30;100.00
70304;BME280;57712;48.752;11.348;2024-03-06T06:25:04;97551.28;;;8.41;100.00
70304;BME280;57712;48.752;11.348;2024-03-06T06:27:30;97554.03;;;8.41;100.00
70304;BME280;57712;48.752;11.348;2024-03-06T06:29:57;97547.00;;;8.40;100.00
70304;BME280;57712;48.752;11.348;2024-03-06T06:32:25;97556.72;;;8.48;100.00
70304;BME280;57712;48.752;11.348;2024-03-06T06:34:52;97560.16;;;8.56;100.00
70304;BME280;57712;48.752;11.348;2024-03-06T06:37:19;97563.25;;;8.54;100.00
70304;BME280;57712;48.752;11.348;2024-03-06T06:39:46;97560.00;;;8.70;100.00
70304;BME280;57712;48.752;11.348;2024-03-06T06:42:12;97567.84;;;8.64;100.00
70304;BME280;57712;48.752;11.348;2024-03-06T06:44:39;97562.28;;;8.75;100.00
70304;BME280;57712;48.752;11.348;2024-03-06T06:47:08;97569.22;;;8.87;100.00
70304;BME280;57712;48.752;11.348;2024-03-06T06:49:35;97574.22;;;8.92;100.00
70304;BME280;57712;48.752;11.348;2024-03-06T06:52:01;97576.16;;;8.95;100.00
70304;BME280;57712;48.752;11.348;2024-03-06T06:54:28;97573.81;;;8.93;100.00
70304;BME280;57712;48.752;11.348;2024-03-06T06:56:54;97570.25;;;9.00;100.00
70304;BME280;57712;48.752;11.348;2024-03-06T06:59:21;97571.31;;;9.10;100.00
70304;BME280;57712;48.752;11.348;2024-03-06T07:01:51;97574.38;;;9.15;100.00
70304;BME280;57712;48.752;11.348;2024-03-06T07:04:18;97575.97;;;9.13;100.00
70304;BME280;57712;48.752;11.348;2024-03-06T07:06:46;97577.69;;;8.96;100.00
70304;BME280;57712;48.752;11.348;2024-03-06T07:09:13;97579.44;;;9.17;100.00
70304;BME280;57712;48.752;11.348;2024-03-06T07:11:43;97585.41;;;9.08;100.00
70304;BME280;57712;48.752;11.348;2024-03-06T07:14:12;97589.88;;;9.25;100.00
70304;BME280;57712;48.752;11.348;2024-03-06T07:16:44;97584.59;;;9.11;100.00
70304;BME280;57712;48.752;11.348;2024-03-06T07:19:11;97584.16;;;9.13;100.00
70304;BME280;57712;48.752;11.348;2024-03-06T07:21:38;97592.47;;;9.02;100.00
70304;BME280;57712;48.752;11.348;2024-03-06T07:24:05;97590.94;;;9.01;100.00
70304;BME280;57712;48.752;11.348;2024-03-06T07:26:33;97590.03;;;9.11;100.00
70304;BME280;57712;48.752;11.348;2024-03-06T07:29:00;97599.94;;;8.98;100.00
70304;BME280;57712;48.752;11.348;2024-03-06T07:31:28;97590.81;;;9.12;100.00
70304;BME280;57712;48.752;11.348;2024-03-06T07:33:54;97597.88;;;9.09;100.00
70304;BME280;57712;48.752;11.348;2024-03-06T07:36:21;97610.56;;;8.89;100.00
70304;BME280;57712;48.752;11.348;2024-03-06T07:38:48;97598.78;;;8.95;100.00
70304;BME280;57712;48.752;11.348;2024-03-06T07:41:15;97604.88;;;9.10;100.00
70304;BME280;57712;48.752;11.348;2024-03-06T07:43:42;97602.28;;;8.96;100.00
70304;BME280;57712;48.752;11.348;2024-03-06T07:46:08;97613.44;;;9.12;100.00
70304;BME280;57712;48.752;11.348;2024-03-06T07:48:37;97612.56;;;9.22;100.00
70304;BME280;57712;48.752;11.348;2024-03-06T07:51:05;97614.13;;;9.23;100.00
70304;BME280;57712;48.752;11.348;2024-03-06T07:53:32;97607.72;;;9.37;100.00
70304;BME280;57712;48.752;11.348;2024-03-06T07:55:58;97615.53;;;9.35;100.00
70304;BME280;57712;48.752;11.348;2024-03-06T07:58:25;97612.75;;;9.42;100.00
70304;BME280;57712;48.752;11.348;2024-03-06T08:00:52;97616.19;;;9.50;100.00
70304;BME280;57712;48.752;11.348;2024-03-06T08:03:22;97612.97;;;9.55;100.00
70304;BME280;57712;48.752;11.348;2024-03-06T08:05:53;97619.31;;;9.48;100.00
70304;BME280;57712;48.752;11.348;2024-03-06T08:08:20;97627.66;;;9.68;100.00
70304;BME280;57712;48.752;11.348;2024-03-06T08:10:47;97622.47;;;9.77;100.00
70304;BME280;57712;48.752;11.348;2024-03-06T08:13:15;97628.69;;;9.81;100.00
70304;BME280;57712;48.752;11.348;2024-03-06T08:15:42;97633.38;;;9.81;100.00
70304;BME280;57712;48.752;11.348;2024-03-06T08:18:12;97636.34;;;9.63;100.00
70304;BME280;57712;48.752;11.348;2024-03-06T08:20:40;97633.88;;;9.72;100.00
70304;BME280;57712;48.752;11.348;2024-03-06T08:23:07;97631.63;;;9.64;100.00
70304;BME280;57712;48.752;11.348;2024-03-06T08:25:34;97637.22;;;9.53;100.00
70304;BME280;57712;48.752;11.348;2024-03-06T08:28:01;97638.56;;;9.38;100.00
70304;BME280;57712;48.752;11.348;2024-03-06T08:30:29;97644.84;;;9.69;100.00
70304;BME280;57712;48.752;11.348;2024-03-06T08:32:59;97641.44;;;9.61;100.00
70304;BME280;57712;48.752;11.348;2024-03-06T08:35:28;97648.56;;;9.86;100.00
70304;BME280;57712;48.752;11.348;2024-03-06T08:37:55;97649.09;;;9.73;100.00
70304;BME280;57712;48.752;11.348;2024-03-06T08:40:21;97645.38;;;9.91;100.00
70304;BME280;57712;48.752;11.348;2024-03-06T08:42:50;97652.34;;;9.95;100.00
70304;BME280;57712;48.752;11.348;2024-03-06T08:45:17;97652.00;;;10.20;100.00
70304;BME280;57712;48.752;11.348;2024-03-06T08:47:45;97653.75;;;10.07;100.00
70304;BME280;57712;48.752;11.348;2024-03-06T08:50:12;97657.88;;;9.92;100.00
70304;BME280;57712;48.752;11.348;2024-03-06T08:52:39;97668.91;;;9.84;100.00
70304;BME280;57712;48.752;11.348;2024-03-06T08:55:08;97667.78;;;10.12;100.00
70304;BME280;57712;48.752;11.348;2024-03-06T08:57:36;97658.66;;;9.89;100.00
70304;BME280;57712;48.752;11.348;2024-03-06T09:00:04;97665.22;;;10.29;100.00
70304;BME280;57712;48.752;11.348;2024-03-06T09:02:31;97664.63;;;10.14;100.00
70304;BME280;57712;48.752;11.348;2024-03-06T09:04:58;97667.63;;;9.93;100.00
70304;BME280;57712;48.752;11.348;2024-03-06T09:07:24;97675.38;;;9.98;100.00
70304;BME280;57712;48.752;11.348;2024-03-06T09:09:51;97672.50;;;10.08;100.00
70304;BME280;57712;48.752;11.348;2024-03-06T09:12:18;97675.66;;;10.07;100.00
70304;BME280;57712;48.752;11.348;2024-03-06T09:14:45;97684.59;;;9.80;100.00
70304;BME280;57712;48.752;11.348;2024-03-06T09:17:12;97683.63;;;9.94;100.00
70304;BME280;57712;48.752;11.348;2024-03-06T09:19:42;97686.69;;;10.00;100.00
70304;BME280;57712;48.752;11.348;2024-03-06T09:22:28;97680.28;;;10.10;100.00
70304;BME280;57712;48.752;11.348;2024-03-06T09:24:55;97690.50;;;9.75;100.00
70304;BME280;57712;48.752;11.348;2024-03-06T09:27:23;97687.78;;;10.06;100.00
70304;BME280;57712;48.752;11.348;2024-03-06T09:29:49;97696.81;;;10.03;100.00
70304;BME280;57712;48.752;11.348;2024-03-06T09:32:16;97692.44;;;10.09;100.00
70304;BME280;57712;48.752;11.348;2024-03-06T09:34:45;97692.69;;;9.88;100.00
70304;BME280;57712;48.752;11.348;2024-03-06T09:37:12;97692.16;;;10.00;100.00
70304;BME280;57712;48.752;11.348;2024-03-06T09:39:39;97695.44;;;9.88;100.00
70304;BME280;57712;48.752;11.348;2024-03-06T09:42:06;97701.66;;;9.92;100.00
70304;BME280;57712;48.752;11.348;2024-03-06T09:44:34;97698.00;;;9.68;100.00
70304;BME280;57712;48.752;11.348;2024-03-06T09:47:02;97695.91;;;9.82;100.00
70304;BME280;57712;48.752;11.348;2024-03-06T09:49:32;97703.34;;;9.78;100.00
70304;BME280;57712;48.752;11.348;2024-03-06T09:52:02;97701.72;;;9.84;100.00
70304;BME280;57712;48.752;11.348;2024-03-06T09:54:30;97701.53;;;10.02;100.00
70304;BME280;57712;48.752;11.348;2024-03-06T09:56:57;97707.53;;;10.24;100.00
70304;BME280;57712;48.752;11.348;2024-03-06T09:59:25;97709.03;;;9.95;100.00
70304;BME280;57712;48.752;11.348;2024-03-06T10:01:55;97706.28;;;10.29;100.00
70304;BME280;57712;48.752;11.348;2024-03-06T10:04:24;97707.94;;;10.53;100.00
70304;BME280;57712;48.752;11.348;2024-03-06T10:06:56;97708.78;;;10.47;100.00
70304;BME280;57712;48.752;11.348;2024-03-06T10:09:24;97711.13;;;10.48;100.00
70304;BME280;57712;48.752;11.348;2024-03-06T10:11:51;97707.88;;;10.57;100.00
70304;BME280;57712;48.752;11.348;2024-03-06T10:14:25;97713.09;;;10.75;100.00
70304;BME280;57712;48.752;11.348;2024-03-06T10:16:56;97707.69;;;10.94;100.00
70304;BME280;57712;48.752;11.348;2024-03-06T10:19:25;97714.22;;;10.77;100.00
70304;BME280;57712;48.752;11.348;2024-03-06T10:21:54;97715.38;;;11.03;100.00
70304;BME280;57712;48.752;11.348;2024-03-06T10:24:26;97710.91;;;11.13;100.00
70304;BME280;57712;48.752;11.348;2024-03-06T10:26:55;97709.09;;;10.79;100.00
70304;BME280;57712;48.752;11.348;2024-03-06T10:29:27;97698.47;;;11.08;100.00
70304;BME280;57712;48.752;11.348;2024-03-06T10:31:56;97712.09;;;10.88;100.00
70304;BME280;57712;48.752;11.348;2024-03-06T10:34:28;97708.50;;;10.91;100.00
70304;BME280;57712;48.752;11.348;2024-03-06T10:36:57;97715.91;;;10.94;100.00
70304;BME280;57712;48.752;11.348;2024-03-06T10:39:25;97698.34;;;11.15;100.00
70304;BME280;57712;48.752;11.348;2024-03-06T10:41:53;97710.53;;;11.34;100.00
70304;BME280;57712;48.752;11.348;2024-03-06T10:44:25;97719.00;;;10.96;100.00
70304;BME280;57712;48.752;11.348;2024-03-06T10:47:03;97719.06;;;10.93;100.00
70304;BME280;57712;48.752;11.348;2024-03-06T10:49:30;97720.59;;;10.94;100.00
70304;BME280;57712;48.752;11.348;2024-03-06T10:51:59;97724.09;;;10.71;100.00
70304;BME280;57712;48.752;11.348;2024-03-06T10:54:30;97722.88;;;10.72;100.00
70304;BME280;57712;48.752;11.348;2024-03-06T10:56:58;97726.16;;;10.90;100.00
70304;BME280;57712;48.752;11.348;2024-03-06T10:59:26;97726.38;;;10.76;100.00
70304;BME280;57712;48.752;11.348;2024-03-06T11:01:58;97724.09;;;10.71;100.00
70304;BME280;57712;48.752;11.348;2024-03-06T11:04:31;97724.69;;;10.82;100.00
70304;BME280;57712;48.752;11.348;2024-03-06T11:07:04;97718.03;;;10.83;100.00
70304;BME280;57712;48.752;11.348;2024-03-06T11:09:35;97723.16;;;10.81;100.00
70304;BME280;57712;48.752;11.348;2024-03-06T11:12:02;97718.19;;;10.73;100.00
70304;BME280;57712;48.752;11.348;2024-03-06T11:14:30;97731.84;;;10.76;100.00
70304;BME280;57712;48.752;11.348;2024-03-06T11:17:10;97726.50;;;10.92;100.00
70304;BME280;57712;48.752;11.348;2024-03-06T11:28:22;97710.53;;;11.34;100.00
70304;BME280;57712;48.752;11.348;2024-03-06T11:30:58;97710.53;;;11.34;100.00
70304;BME280;57712;48.752;11.348;2024-03-06T11:33:35;97711.84;;;11.49;100.00
70304;BME280;57712;48.752;11.348;2024-03-06T11:38:50;97711.28;;;11.38;100.00
70304;BME280;57712;48.752;11.348;2024-03-06T11:41:20;97708.81;;;11.44;100.00
70304;BME280;57712;48.752;11.348;2024-03-06T11:43:51;97705.97;;;11.27;100.00
70304;BME280;57712;48.752;11.348;2024-03-06T11:46:20;97701.69;;;11.26;100.00
70304;BME280;57712;48.752;11.348;2024-03-06T11:48:54;97708.88;;;11.40;100.00
70304;BME280;57712;48.752;11.348;2024-03-06T11:51:22;97703.75;;;11.19;100.00
70304;BME280;57712;48.752;11.348;2024-03-06T11:53:50;97718.88;;;11.04;100.00
70304;BME280;57712;48.752;11.348;2024-03-06T11:56:18;97705.44;;;11.36;100.00
70304;BME280;57712;48.752;11.348;2024-03-06T11:58:46;97700.31;;;11.38;100.00
70304;BME280;57712;48.752;11.348;2024-03-06T12:01:16;97701.88;;;11.59;100.00
70304;BME280;57712;48.752;11.348;2024-03-06T12:03:46;97699.41;;;11.88;100.00
70304;BME280;57712;48.752;11.348;2024-03-06T12:06:15;97701.13;;;11.78;100.00
70304;BME280;57712;48.752;11.348;2024-03-06T12:08:43;97703.88;;;11.98;100.00
70304;BME280;57712;48.752;11.348;2024-03-06T12:11:10;97706.63;;;12.54;100.00
70304;BME280;57712;48.752;11.348;2024-03-06T12:13:37;97704.75;;;12.67;100.00
70304;BME280;57712;48.752;11.348;2024-03-06T12:16:05;97702.56;;;12.95;100.00
70304;BME280;57712;48.752;11.348;2024-03-06T12:18:35;97701.03;;;13.26;100.00
70304;BME280;57712;48.752;11.348;2024-03-06T12:21:04;97705.28;;;13.11;100.00
70304;BME280;57712;48.752;11.348;2024-03-06T12:23:31;97700.16;;;12.97;100.00
70304;BME280;57712;48.752;11.348;2024-03-06T12:26:08;97706.44;;;13.30;100.00
70304;BME280;57712;48.752;11.348;2024-03-06T12:28:37;97699.81;;;12.95;100.00
70304;BME280;57712;48.752;11.348;2024-03-06T12:31:05;97701.91;;;13.23;100.00
70304;BME280;57712;48.752;11.348;2024-03-06T12:33:32;97696.88;;;13.02;100.00
70304;BME280;57712;48.752;11.348;2024-03-06T12:36:04;97690.59;;;12.69;100.00
70304;BME280;57712;48.752;11.348;2024-03-06T12:38:32;97693.13;;;12.43;100.00
70304;BME280;57712;48.752;11.348;2024-03-06T12:41:00;97696.47;;;12.15;100.00
70304;BME280;57712;48.752;11.348;2024-03-06T12:43:26;97698.53;;;12.31;100.00
70304;BME280;57712;48.752;11.348;2024-03-06T12:45:56;97702.84;;;12.12;100.00
70304;BME280;57712;48.752;11.348;2024-03-06T12:48:25;97700.31;;;12.01;100.00
70304;BME280;57712;48.752;11.348;2024-03-06T12:50:52;97704.25;;;11.80;100.00
70304;BME280;57712;48.752;11.348;2024-03-06T12:53:21;97693.97;;;11.84;100.00
70304;BME280;57712;48.752;11.348;2024-03-06T12:55:48;97700.31;;;11.81;100.00
70304;BME280;57712;48.752;11.348;2024-03-06T12:58:15;97703.88;;;11.98;100.00
70304;BME280;57712;48.752;11.348;2024-03-06T13:00:42;97699.44;;;12.04;100.00
70304;BME280;57712;48.752;11.348;2024-03-06T13:03:09;97698.25;;;12.05;100.00
70304;BME280;57712;48.752;11.348;2024-03-06T13:05:36;97696.84;;;11.97;100.00
70304;BME280;57712;48.752;11.348;2024-03-06T13:08:04;97700.94;;;11.89;100.00